createdAt,value
2017-01-25T00:01:33.464Z,-8.01
2017-01-25T00:03:40.827Z,-8.01
2017-01-25T00:05:53.143Z,-8.05
2017-01-25T00:08:05.348Z,-8.05
2017-01-25T00:10:17.778Z,-8.05
2017-01-25T00:12:30.899Z,-8.06
2017-01-25T00:14:43.457Z,-8.05
2017-01-25T00:16:50.851Z,-8.05
2017-01-25T00:19:03.050Z,-8.08
2017-01-25T00:21:15.206Z,-8.06
2017-01-25T00:23:27.532Z,-8.08
2017-01-25T00:25:39.727Z,-8.08
2017-01-25T00:27:51.911Z,-8.09
2017-01-25T00:30:04.112Z,-8.11
2017-01-25T00:32:16.475Z,-8.09
2017-01-25T00:34:29.017Z,-8.09
2017-01-25T00:36:41.268Z,-8.11
2017-01-25T00:38:53.499Z,-8.11
2017-01-25T00:41:05.764Z,-8.11
2017-01-25T00:43:18.056Z,-8.12
2017-01-25T00:45:30.354Z,-8.11
2017-01-25T00:47:42.979Z,-8.12
2017-01-25T00:49:55.612Z,-8.13
2017-01-25T00:52:07.886Z,-8.13
2017-01-25T00:54:20.081Z,-8.15
2017-01-25T00:56:32.377Z,-8.13
2017-01-25T00:58:44.688Z,-8.15
2017-01-25T01:00:56.836Z,-8.16
2017-01-25T01:03:09.095Z,-8.16
2017-01-25T01:05:21.405Z,-8.16
2017-01-25T01:07:33.888Z,-8.16
2017-01-25T01:09:46.157Z,-8.16
2017-01-25T01:11:53.570Z,-8.16
2017-01-25T01:14:00.725Z,-8.18
2017-01-25T01:16:12.975Z,-8.18
2017-01-25T01:18:25.272Z,-8.18
2017-01-25T01:20:37.445Z,-8.18
2017-01-25T01:22:50.170Z,-8.18
2017-01-25T01:24:57.701Z,-8.19
2017-01-25T01:27:09.953Z,-8.18
2017-01-25T01:29:22.395Z,-8.16
2017-01-25T01:31:34.543Z,-8.18
2017-01-25T01:33:47.059Z,-8.19
2017-01-25T01:35:54.507Z,-8.18
2017-01-25T01:38:06.747Z,-8.18
2017-01-25T01:40:19.035Z,-8.18
2017-01-25T01:42:26.347Z,-8.19
2017-01-25T01:44:38.518Z,-8.19
2017-01-25T01:46:50.831Z,-8.18
2017-01-25T01:49:03.222Z,-8.18
2017-01-25T01:51:15.524Z,-8.19
2017-01-25T01:53:27.840Z,-8.19
2017-01-25T01:55:40.378Z,-8.19
2017-01-25T01:57:53.296Z,-8.18
2017-01-25T02:00:05.581Z,-8.19
2017-01-25T02:02:17.897Z,-8.19
2017-01-25T02:04:25.177Z,-8.19
2017-01-25T02:06:37.584Z,-8.16
2017-01-25T02:08:49.880Z,-8.19
2017-01-25T02:10:52.146Z,-8.16
2017-01-25T02:12:59.630Z,-8.16
2017-01-25T02:15:11.819Z,-8.18
2017-01-25T02:17:23.983Z,-8.18
2017-01-25T02:19:36.475Z,-8.18
2017-01-25T02:21:43.714Z,-8.16
2017-01-25T02:23:56.109Z,-8.18
2017-01-25T02:26:08.354Z,-8.16
2017-01-25T02:28:20.957Z,-8.18
2017-01-25T02:30:33.868Z,-8.16
2017-01-25T02:32:46.486Z,-8.18
2017-01-25T02:34:53.842Z,-8.18
2017-01-25T02:37:01.122Z,-8.18
2017-01-25T02:39:13.514Z,-8.19
2017-01-25T02:41:20.697Z,-8.19
2017-01-25T02:43:32.865Z,-8.19
2017-01-25T02:45:45.100Z,-8.18
2017-01-25T02:47:57.291Z,-8.18
2017-01-25T02:50:04.592Z,-8.19
2017-01-25T02:52:16.905Z,-8.19
2017-01-25T02:54:24.166Z,-8.21
2017-01-25T02:56:36.466Z,-8.21
2017-01-25T02:58:48.898Z,-8.23
2017-01-25T03:01:01.285Z,-8.23
2017-01-25T03:03:03.864Z,-8.24
2017-01-25T03:05:16.959Z,-8.23
2017-01-25T03:07:29.465Z,-8.24
2017-01-25T03:09:41.766Z,-8.24
2017-01-25T03:11:49.054Z,-8.26
2017-01-25T03:14:01.258Z,-8.26
2017-01-25T03:16:13.595Z,-8.26
2017-01-25T03:18:25.878Z,-8.27
2017-01-25T03:20:38.098Z,-8.29
2017-01-25T03:22:50.369Z,-8.29
2017-01-25T03:25:02.584Z,-8.29
2017-01-25T03:27:14.753Z,-8.3
2017-01-25T03:29:27.067Z,-8.31
2017-01-25T03:31:39.272Z,-8.34
2017-01-25T03:33:51.431Z,-8.34
2017-01-25T03:36:03.668Z,-8.36
2017-01-25T03:38:15.923Z,-8.34
2017-01-25T03:40:28.863Z,-8.36
2017-01-25T03:42:41.176Z,-8.36
2017-01-25T03:44:53.796Z,-8.36
2017-01-25T03:47:06.098Z,-8.39
2017-01-25T03:49:18.282Z,-8.39
2017-01-25T03:51:30.600Z,-8.4
2017-01-25T03:53:43.003Z,-8.39
2017-01-25T03:55:55.630Z,-8.4
2017-01-25T03:58:08.102Z,-8.42
2017-01-25T04:00:20.335Z,-8.44
2017-01-25T04:02:32.536Z,-8.44
2017-01-25T04:04:44.716Z,-8.45
2017-01-25T04:06:57.236Z,-8.47
2017-01-25T04:09:09.516Z,-8.47
2017-01-25T04:11:21.716Z,-8.48
2017-01-25T04:13:34.630Z,-8.5
2017-01-25T04:15:47.271Z,-8.5
2017-01-25T04:17:59.618Z,-8.51
2017-01-25T04:20:11.942Z,-8.51
2017-01-25T04:22:24.354Z,-8.54
2017-01-25T04:24:38.590Z,-8.54
2017-01-25T04:26:50.893Z,-8.55
2017-01-25T04:29:03.293Z,-8.57
2017-01-25T04:31:15.596Z,-8.58
2017-01-25T04:33:27.839Z,-8.6
2017-01-25T04:35:40.204Z,-8.62
2017-01-25T04:37:52.442Z,-8.62
2017-01-25T04:40:04.628Z,-8.63
2017-01-25T04:42:16.790Z,-8.65
2017-01-25T04:44:29.007Z,-8.66
2017-01-25T04:46:41.407Z,-8.65
2017-01-25T04:48:54.273Z,-8.66
2017-01-25T04:51:06.730Z,-8.68
2017-01-25T04:53:19.564Z,-8.68
2017-01-25T04:55:31.716Z,-8.69
2017-01-25T04:57:44.149Z,-8.69
2017-01-25T04:59:56.336Z,-8.68
2017-01-25T05:02:08.637Z,-8.7
2017-01-25T05:04:20.935Z,-8.69
2017-01-25T05:06:28.224Z,-8.7
2017-01-25T05:08:38.776Z,-8.7
2017-01-25T05:10:51.090Z,-8.7
2017-01-25T05:13:03.434Z,-8.73
2017-01-25T05:15:15.711Z,-8.72
2017-01-25T05:17:28.105Z,-8.73
2017-01-25T05:19:41.226Z,-8.75
2017-01-25T05:21:53.858Z,-8.75
2017-01-25T05:24:06.636Z,-8.73
2017-01-25T05:26:13.915Z,-8.75
2017-01-25T05:28:21.155Z,-8.75
2017-01-25T05:30:33.328Z,-8.76
2017-01-25T05:32:45.467Z,-8.78
2017-01-25T05:34:57.817Z,-8.8
2017-01-25T05:37:09.992Z,-8.78
2017-01-25T05:39:22.294Z,-8.8
2017-01-25T05:41:34.697Z,-8.81
2017-01-25T05:43:46.853Z,-8.84
2017-01-25T05:45:59.203Z,-8.83
2017-01-25T05:48:11.502Z,-8.84
2017-01-25T05:50:23.819Z,-8.83
2017-01-25T05:52:36.028Z,-8.84
2017-01-25T05:54:48.216Z,-8.84
2017-01-25T05:57:00.877Z,-8.84
2017-01-25T05:59:13.620Z,-8.84
2017-01-25T06:01:26.040Z,-8.86
2017-01-25T06:03:38.446Z,-8.83
2017-01-25T06:05:50.988Z,-8.84
2017-01-25T06:08:03.336Z,-8.84
2017-01-25T06:10:15.524Z,-8.86
2017-01-25T06:12:27.700Z,-8.84
2017-01-25T06:14:40.164Z,-8.83
2017-01-25T06:16:52.349Z,-8.84
2017-01-25T06:19:04.573Z,-8.83
2017-01-25T06:21:16.723Z,-8.83
2017-01-25T06:23:29.149Z,-8.83
2017-01-25T06:25:41.376Z,-8.83
2017-01-25T06:27:53.766Z,-8.81
2017-01-25T06:30:07.675Z,-8.8
2017-01-25T06:32:20.489Z,-8.78
2017-01-25T06:34:32.813Z,-8.76
2017-01-25T06:36:45.212Z,-8.76
2017-01-25T06:38:57.618Z,-8.76
2017-01-25T06:41:09.879Z,-8.75
2017-01-25T06:43:17.192Z,-8.72
2017-01-25T06:45:29.410Z,-8.72
2017-01-25T06:47:41.627Z,-8.7
2017-01-25T06:49:53.839Z,-8.7
2017-01-25T06:52:01.395Z,-8.69
2017-01-25T06:54:13.693Z,-8.69
2017-01-25T06:56:25.849Z,-8.66
2017-01-25T06:58:38.203Z,-8.66
2017-01-25T07:00:50.612Z,-8.65
2017-01-25T07:03:03.111Z,-8.65
2017-01-25T07:05:15.623Z,-8.63
2017-01-25T07:07:28.512Z,-8.63
2017-01-25T07:09:30.892Z,-8.62
2017-01-25T07:11:43.208Z,-8.58
2017-01-25T07:13:50.598Z,-8.58
2017-01-25T07:15:58.067Z,-8.57
2017-01-25T07:18:05.467Z,-8.54
2017-01-25T07:20:18.084Z,-8.52
2017-01-25T07:22:25.373Z,-8.51
2017-01-25T07:24:37.673Z,-8.5
2017-01-25T07:26:49.956Z,-8.48
2017-01-25T07:29:02.297Z,-8.45
2017-01-25T07:31:09.791Z,-8.45
2017-01-25T07:33:22.346Z,-8.4
2017-01-25T07:35:39.074Z,-8.37
2017-01-25T07:38:09.201Z,-8.37
2017-01-25T07:40:17.757Z,-8.33
2017-01-25T07:42:30.504Z,-8.31
2017-01-25T07:44:37.852Z,-8.29
2017-01-25T07:46:50.179Z,-8.24
2017-01-25T07:49:02.600Z,-8.23
2017-01-25T07:51:16.116Z,-8.21
2017-01-25T07:53:28.641Z,-8.18
2017-01-25T07:55:40.932Z,-8.15
2017-01-25T07:57:53.643Z,-8.12
2017-01-25T08:00:06.190Z,-8.11
2017-01-25T08:02:18.753Z,-8.08
2017-01-25T08:04:30.928Z,-8.05
2017-01-25T08:06:45.201Z,-8.01
2017-01-25T08:08:57.909Z,-7.96
2017-01-25T08:11:10.929Z,-7.93
2017-01-25T08:13:23.131Z,-7.91
2017-01-25T08:15:35.501Z,-7.87
2017-01-25T08:17:47.895Z,-7.86
2017-01-25T08:20:00.155Z,-7.79
2017-01-25T08:22:13.482Z,-7.76
2017-01-25T08:24:26.011Z,-7.73
2017-01-25T08:26:38.272Z,-7.71
2017-01-25T08:28:50.618Z,-7.68
2017-01-25T08:30:58.092Z,-7.66
2017-01-25T08:33:10.349Z,-7.62
2017-01-25T08:35:22.658Z,-7.6
2017-01-25T08:37:35.186Z,-7.57
2017-01-25T08:39:47.625Z,-7.54
2017-01-25T08:42:00.096Z,-7.5
2017-01-25T08:44:12.508Z,-7.46
2017-01-25T08:46:24.891Z,-7.41
2017-01-25T08:48:37.099Z,-7.4
2017-01-25T08:50:44.637Z,-7.36
2017-01-25T08:52:57.091Z,-7.33
2017-01-25T08:55:09.720Z,-7.31
2017-01-25T08:57:22.312Z,-7.26
2017-01-25T08:59:34.534Z,-7.23
2017-01-25T09:01:46.948Z,-7.19
2017-01-25T09:03:54.393Z,-7.15
2017-01-25T09:06:06.613Z,-7.13
2017-01-25T09:08:18.900Z,-7.08
2017-01-25T09:10:26.293Z,-7.05
2017-01-25T09:12:33.567Z,-7.02
2017-01-25T09:14:45.967Z,-6.98
2017-01-25T09:16:58.126Z,-6.94
2017-01-25T09:19:10.557Z,-6.92
2017-01-25T09:21:23.089Z,-6.84
2017-01-25T09:23:35.392Z,-6.82
2017-01-25T09:25:47.601Z,-6.77
2017-01-25T09:27:59.795Z,-6.74
2017-01-25T09:30:13.079Z,-6.69
2017-01-25T09:32:25.752Z,-6.66
2017-01-25T09:34:38.000Z,-6.63
2017-01-25T09:36:50.543Z,-6.59
2017-01-25T09:39:02.949Z,-6.5
2017-01-25T09:41:15.439Z,-6.49
2017-01-25T09:43:28.131Z,-6.44
2017-01-25T09:45:40.576Z,-6.42
2017-01-25T09:47:53.163Z,-6.39
2017-01-25T09:50:10.179Z,-6.36
2017-01-25T09:52:22.638Z,-6.32
2017-01-25T09:54:34.865Z,-6.29
2017-01-25T09:56:47.166Z,-6.25
2017-01-25T09:58:57.826Z,-6.25
2017-01-25T10:01:10.263Z,-6.22
2017-01-25T10:03:22.772Z,-6.18
2017-01-25T10:05:30.445Z,-6.15
2017-01-25T10:07:42.955Z,-6.11
2017-01-25T10:09:55.450Z,-6.07
2017-01-25T10:12:07.855Z,-6.07
2017-01-25T10:14:15.239Z,-6.04
2017-01-25T10:16:17.720Z,-6.03
2017-01-25T10:18:30.028Z,-6
2017-01-25T10:20:42.831Z,-5.98
2017-01-25T10:22:55.258Z,-5.93
2017-01-25T10:25:07.528Z,-5.89
2017-01-25T10:27:14.750Z,-5.86
2017-01-25T10:29:27.012Z,-5.8
2017-01-25T10:31:39.327Z,-5.79
2017-01-25T10:33:51.630Z,-5.75
2017-01-25T10:36:04.021Z,-5.71
2017-01-25T10:38:16.207Z,-5.66
2017-01-25T10:40:28.983Z,-5.64
2017-01-25T10:42:36.636Z,-5.62
2017-01-25T10:44:49.655Z,-5.59
2017-01-25T10:47:02.057Z,-5.57
2017-01-25T10:49:14.308Z,-5.54
2017-01-25T10:51:26.645Z,-5.51
2017-01-25T10:53:38.930Z,-5.5
2017-01-25T10:55:51.159Z,-5.46
2017-01-25T10:58:03.822Z,-5.46
2017-01-25T11:02:21.550Z,-5.39
2017-01-25T11:04:33.807Z,-5.37
2017-01-25T11:06:41.085Z,-5.35
2017-01-25T11:08:53.332Z,-5.32
2017-01-25T11:11:05.723Z,-5.29
2017-01-25T11:13:18.138Z,-5.26
2017-01-25T11:15:30.526Z,-5.23
2017-01-25T11:17:43.015Z,-5.19
2017-01-25T11:19:55.554Z,-5.17
2017-01-25T11:22:07.858Z,-5.11
2017-01-25T11:24:15.064Z,-5.1
2017-01-25T11:26:27.803Z,-5.06
2017-01-25T11:28:40.206Z,-5.04
2017-01-25T11:30:52.620Z,-4.99
2017-01-25T11:33:05.048Z,-4.96
2017-01-25T11:35:17.444Z,-4.92
2017-01-25T11:37:29.919Z,-4.89
2017-01-25T11:39:42.074Z,-4.87
2017-01-25T11:41:49.303Z,-4.85
2017-01-25T11:44:01.605Z,-4.79
2017-01-25T11:46:13.907Z,-4.79
2017-01-25T11:48:26.403Z,-4.78
2017-01-25T11:50:38.813Z,-4.77
2017-01-25T11:52:46.503Z,-4.74
2017-01-25T11:54:58.924Z,-4.74
2017-01-25T11:57:11.212Z,-4.72
2017-01-25T11:59:18.529Z,-4.69
2017-01-25T12:01:30.707Z,-4.69
2017-01-25T12:03:44.451Z,-4.68
2017-01-25T12:06:01.025Z,-4.68
2017-01-25T12:08:13.377Z,-4.65
2017-01-25T12:10:20.839Z,-4.63
2017-01-25T12:12:34.719Z,-4.61
2017-01-25T12:14:47.101Z,-4.6
2017-01-25T12:16:59.469Z,-4.58
2017-01-25T12:19:11.771Z,-4.58
2017-01-25T12:21:19.264Z,-4.58
2017-01-25T12:23:31.440Z,-4.57
2017-01-25T12:25:43.734Z,-4.56
2017-01-25T12:27:51.159Z,-4.53
2017-01-25T12:30:03.766Z,-4.5
2017-01-25T12:32:11.253Z,-4.5
2017-01-25T12:34:23.605Z,-4.47
2017-01-25T12:36:35.918Z,-4.47
2017-01-25T12:38:48.156Z,-4.43
2017-01-25T12:41:00.496Z,-4.42
2017-01-25T12:43:02.782Z,-4.42
2017-01-25T12:45:10.204Z,-4.42
2017-01-25T12:47:22.506Z,-4.42
2017-01-25T12:49:34.835Z,-4.42
2017-01-25T12:51:48.668Z,-4.4
2017-01-25T12:54:01.076Z,-4.4
2017-01-25T12:56:13.329Z,-4.4
2017-01-25T12:58:25.755Z,-4.4
2017-01-25T13:00:28.327Z,-4.4
2017-01-25T13:02:40.652Z,-4.39
2017-01-25T13:04:53.159Z,-4.39
2017-01-25T13:07:05.484Z,-4.39
2017-01-25T13:09:18.184Z,-4.38
2017-01-25T13:11:30.381Z,-4.36
2017-01-25T13:13:38.726Z,-4.35
2017-01-25T13:15:50.966Z,-4.35
2017-01-25T13:18:03.283Z,-4.35
2017-01-25T13:20:15.700Z,-4.32
2017-01-25T13:22:28.468Z,-4.32
2017-01-25T13:24:35.855Z,-4.32
2017-01-25T13:26:49.403Z,-4.3
2017-01-25T13:29:01.622Z,-4.32
2017-01-25T13:31:13.987Z,-4.3
2017-01-25T13:33:26.578Z,-4.29
2017-01-25T13:35:39.021Z,-4.29
2017-01-25T13:37:51.419Z,-4.29
2017-01-25T13:40:03.955Z,-4.32
2017-01-25T13:42:11.405Z,-4.32
2017-01-25T13:44:23.709Z,-4.32
2017-01-25T13:46:35.909Z,-4.33
2017-01-25T13:48:43.316Z,-4.33
2017-01-25T13:50:55.609Z,-4.33
2017-01-25T13:53:08.600Z,-4.32
2017-01-25T13:55:16.000Z,-4.33
2017-01-25T13:57:30.691Z,-4.33
2017-01-25T13:59:38.044Z,-4.35
2017-01-25T14:01:50.827Z,-4.33
2017-01-25T14:04:03.075Z,-4.33
2017-01-25T14:06:15.341Z,-4.35
2017-01-25T14:08:27.784Z,-4.36
2017-01-25T14:10:40.280Z,-4.36
2017-01-25T14:12:52.464Z,-4.35
2017-01-25T14:15:06.824Z,-4.36
2017-01-25T14:17:09.201Z,-4.36
2017-01-25T14:19:22.707Z,-4.36
2017-01-25T14:21:35.021Z,-4.38
2017-01-25T14:23:47.419Z,-4.39
2017-01-25T14:25:59.918Z,-4.4
2017-01-25T14:28:13.391Z,-4.4
2017-01-25T14:30:25.607Z,-4.42
2017-01-25T14:32:37.948Z,-4.43
2017-01-25T14:34:50.741Z,-4.43
2017-01-25T14:37:03.680Z,-4.43
2017-01-25T14:39:16.862Z,-4.47
2017-01-25T14:41:29.224Z,-4.49
2017-01-25T14:43:41.633Z,-4.5
2017-01-25T14:45:53.932Z,-4.5
2017-01-25T14:48:06.483Z,-4.51
2017-01-25T14:50:18.847Z,-4.53
2017-01-25T14:52:31.389Z,-4.54
2017-01-25T14:54:45.196Z,-4.56
2017-01-25T14:56:59.061Z,-4.57
2017-01-25T14:59:12.042Z,-4.57
2017-01-25T15:01:24.348Z,-4.58
2017-01-25T15:03:36.735Z,-4.6
2017-01-25T15:05:50.187Z,-4.61
2017-01-25T15:08:02.588Z,-4.61
2017-01-25T15:10:15.128Z,-4.63
2017-01-25T15:12:22.823Z,-4.63
2017-01-25T15:14:36.125Z,-4.65
2017-01-25T15:16:49.928Z,-4.67
2017-01-25T15:19:03.247Z,-4.68
2017-01-25T15:21:16.021Z,-4.69
2017-01-25T15:23:25.618Z,-4.69
2017-01-25T15:25:33.015Z,-4.72
2017-01-25T15:27:45.796Z,-4.75
2017-01-25T15:29:58.294Z,-4.75
2017-01-25T15:32:13.859Z,-4.77
2017-01-25T15:34:29.092Z,-4.79
2017-01-25T15:36:41.812Z,-4.81
2017-01-25T15:38:54.409Z,-4.83
2017-01-25T15:41:06.703Z,-4.83
2017-01-25T15:43:20.818Z,-4.85
2017-01-25T15:45:34.086Z,-4.87
2017-01-25T15:48:43.281Z,-4.87
2017-01-25T15:50:57.522Z,-4.9
2017-01-25T15:53:10.911Z,-4.92
2017-01-25T15:55:23.354Z,-4.92
2017-01-25T15:57:35.684Z,-4.93
2017-01-25T15:59:49.128Z,-4.95
2017-01-25T16:02:01.510Z,-4.96
2017-01-25T16:04:13.949Z,-4.96
2017-01-25T16:06:28.168Z,-4.96
2017-01-25T16:08:40.445Z,-4.97
2017-01-25T16:10:52.951Z,-4.99
2017-01-25T16:13:00.413Z,-4.99
2017-01-25T16:15:12.870Z,-4.99
2017-01-25T16:17:26.300Z,-5
2017-01-25T16:19:38.535Z,-5
2017-01-25T16:21:50.888Z,-5
2017-01-25T16:24:03.575Z,-5
2017-01-25T16:26:15.899Z,-5.03
2017-01-25T16:28:28.212Z,-5.03
2017-01-25T16:30:40.507Z,-5.03
2017-01-25T16:32:53.001Z,-5.03
2017-01-25T16:35:05.171Z,-5.03
2017-01-25T16:37:17.600Z,-5.04
2017-01-25T16:39:30.365Z,-5.03
2017-01-25T16:41:42.796Z,-5.03
2017-01-25T16:43:55.292Z,-5.04
2017-01-25T16:46:07.932Z,-5.03
2017-01-25T16:48:15.487Z,-5.03
2017-01-25T16:50:28.943Z,-5.03
2017-01-25T16:52:41.268Z,-5
2017-01-25T16:54:53.535Z,-5
2017-01-25T16:57:00.744Z,-5.03
2017-01-25T16:59:13.174Z,-5.03
2017-01-25T17:01:25.407Z,-5
2017-01-25T17:03:38.363Z,-5
2017-01-25T17:05:50.674Z,-5
2017-01-25T17:08:03.231Z,-4.99
2017-01-25T17:10:15.516Z,-4.99
2017-01-25T17:12:27.925Z,-4.99
2017-01-25T17:14:35.327Z,-4.97
2017-01-25T17:16:47.702Z,-4.97
2017-01-25T17:19:00.078Z,-4.99
2017-01-25T17:21:07.462Z,-4.97
2017-01-25T17:23:20.173Z,-4.96
2017-01-25T17:25:32.753Z,-4.97
2017-01-25T17:27:45.068Z,-4.96
2017-01-25T17:29:57.466Z,-4.95
2017-01-25T17:32:09.740Z,-4.93
2017-01-25T17:34:17.066Z,-4.95
2017-01-25T17:36:29.579Z,-4.93
2017-01-25T17:38:41.873Z,-4.95
2017-01-25T17:40:54.190Z,-4.95
2017-01-25T17:43:06.472Z,-4.93
2017-01-25T17:45:18.793Z,-4.93
2017-01-25T17:47:31.277Z,-4.93
2017-01-25T17:49:43.702Z,-4.93
2017-01-25T17:51:57.469Z,-4.9
2017-01-25T17:54:09.933Z,-4.92
2017-01-25T17:56:22.305Z,-4.89
2017-01-25T17:58:34.542Z,-4.92
2017-01-25T18:00:47.772Z,-4.9
2017-01-25T18:03:00.426Z,-4.9
2017-01-25T18:05:13.196Z,-4.89
2017-01-25T18:07:20.653Z,-4.87
2017-01-25T18:09:36.979Z,-4.89
2017-01-25T18:12:03.042Z,-4.86
2017-01-25T18:14:30.995Z,-4.86
2017-01-25T18:16:47.101Z,-4.86
2017-01-25T18:19:06.550Z,-4.85
2017-01-25T18:21:20.201Z,-4.83
2017-01-25T18:23:35.785Z,-4.81
2017-01-25T18:25:50.978Z,-4.85
2017-01-25T18:28:05.449Z,-4.83
2017-01-25T18:30:19.956Z,-4.81
2017-01-25T18:32:34.497Z,-4.81
2017-01-25T18:34:50.152Z,-4.79
2017-01-25T18:37:04.551Z,-4.79
2017-01-25T18:39:22.020Z,-4.79
2017-01-25T18:41:36.716Z,-4.79
2017-01-25T18:43:52.854Z,-4.78
2017-01-25T18:46:07.460Z,-4.77
2017-01-25T18:49:00.234Z,-4.77
2017-01-25T18:51:50.263Z,-4.75
2017-01-25T18:54:38.756Z,-4.75
2017-01-25T18:57:34.138Z,-4.75
2017-01-25T19:00:27.266Z,-4.74
2017-01-25T19:03:21.541Z,-4.74
2017-01-25T19:06:14.215Z,-4.72
2017-01-25T19:08:33.305Z,-4.72
2017-01-25T19:10:53.380Z,-4.72
2017-01-25T19:13:31.347Z,-4.69
2017-01-25T19:16:01.570Z,-4.71
2017-01-25T19:18:34.498Z,-4.69
2017-01-25T19:21:11.127Z,-4.69
2017-01-25T19:23:48.096Z,-4.68
2017-01-25T19:26:25.893Z,-4.68
2017-01-25T19:29:00.279Z,-4.68
2017-01-25T19:31:31.151Z,-4.67
2017-01-25T19:33:53.473Z,-4.67
2017-01-25T19:36:19.869Z,-4.65
2017-01-25T19:38:54.963Z,-4.65
2017-01-25T19:41:26.802Z,-4.63
2017-01-25T19:44:08.111Z,-4.65
2017-01-25T19:46:47.426Z,-4.65
2017-01-25T19:49:20.173Z,-4.63
2017-01-25T19:51:51.616Z,-4.63
2017-01-25T19:54:16.963Z,-4.61
2017-01-25T19:56:46.033Z,-4.61
2017-01-25T19:59:20.505Z,-4.61
2017-01-25T20:01:51.063Z,-4.61
2017-01-25T20:04:16.158Z,-4.61
2017-01-25T20:06:49.632Z,-4.6
2017-01-25T20:09:11.846Z,-4.6
2017-01-25T20:11:36.996Z,-4.6
2017-01-25T20:14:14.300Z,-4.6
2017-01-25T20:16:42.517Z,-4.58
2017-01-25T20:19:06.484Z,-4.61
2017-01-25T20:21:34.539Z,-4.6
2017-01-25T20:23:58.475Z,-4.61
2017-01-25T20:26:29.139Z,-4.6
2017-01-25T20:28:54.088Z,-4.6
2017-01-25T20:31:26.891Z,-4.6
2017-01-25T20:33:56.675Z,-4.6
2017-01-25T20:36:21.168Z,-4.61
2017-01-25T20:38:40.845Z,-4.6
2017-01-25T20:40:54.833Z,-4.6
2017-01-25T20:43:20.538Z,-4.6
2017-01-25T20:45:56.664Z,-4.61
2017-01-25T20:48:31.074Z,-4.61
2017-01-25T20:51:06.543Z,-4.61
2017-01-25T20:53:41.251Z,-4.61
2017-01-25T20:56:13.338Z,-4.61
2017-01-25T20:58:47.778Z,-4.61
2017-01-25T21:01:25.354Z,-4.6
2017-01-25T21:04:05.961Z,-4.61
2017-01-25T21:06:47.808Z,-4.63
2017-01-25T21:09:28.997Z,-4.61
2017-01-25T21:11:56.538Z,-4.6
2017-01-25T21:14:09.050Z,-4.61
2017-01-25T21:16:21.755Z,-4.6
2017-01-25T21:18:38.244Z,-4.6
2017-01-25T21:20:51.661Z,-4.6
2017-01-25T21:23:04.082Z,-4.58
2017-01-25T21:25:16.571Z,-4.58
2017-01-25T21:27:29.614Z,-4.58
2017-01-25T21:29:42.637Z,-4.57
2017-01-25T21:31:55.205Z,-4.6
2017-01-25T21:34:04.178Z,-4.57
2017-01-25T21:36:18.912Z,-4.58
2017-01-25T21:38:32.253Z,-4.58
2017-01-25T21:40:41.581Z,-4.57
2017-01-25T21:42:56.535Z,-4.57
2017-01-25T21:45:09.013Z,-4.58
2017-01-25T21:47:21.473Z,-4.57
2017-01-25T21:49:33.733Z,-4.57
2017-01-25T21:51:46.115Z,-4.57
2017-01-25T21:53:58.642Z,-4.57
2017-01-25T21:56:11.042Z,-4.57
2017-01-25T21:58:27.688Z,-4.57
2017-01-25T22:00:39.936Z,-4.57
2017-01-25T22:02:52.161Z,-4.56
2017-01-25T22:05:04.755Z,-4.56
2017-01-25T22:07:17.381Z,-4.56
2017-01-25T22:09:29.764Z,-4.56
2017-01-25T22:11:42.207Z,-4.56
2017-01-25T22:13:54.538Z,-4.56
2017-01-25T22:16:07.013Z,-4.54
2017-01-25T22:18:19.500Z,-4.54
2017-01-25T22:20:31.902Z,-4.56
2017-01-25T22:22:44.347Z,-4.54
2017-01-25T22:24:56.705Z,-4.54
2017-01-25T22:27:09.102Z,-4.54
2017-01-25T22:29:21.552Z,-4.54
2017-01-25T22:31:33.912Z,-4.54
2017-01-25T22:33:46.411Z,-4.54
2017-01-25T22:35:58.935Z,-4.54
2017-01-25T22:38:11.415Z,-4.54
2017-01-25T22:40:26.238Z,-4.53
2017-01-25T22:42:38.585Z,-4.54
2017-01-25T22:44:57.854Z,-4.53
2017-01-25T22:47:05.352Z,-4.53
2017-01-25T22:49:17.923Z,-4.53
2017-01-25T22:51:25.374Z,-4.53
2017-01-25T22:53:33.567Z,-4.53
2017-01-25T22:55:46.093Z,-4.51
2017-01-25T22:57:58.671Z,-4.51
2017-01-25T23:00:11.139Z,-4.53
2017-01-25T23:02:23.684Z,-4.53
2017-01-25T23:04:36.034Z,-4.53
2017-01-25T23:06:48.527Z,-4.51
2017-01-25T23:09:01.029Z,-4.53
2017-01-25T23:11:13.706Z,-4.51
2017-01-25T23:13:26.305Z,-4.51
2017-01-25T23:15:38.957Z,-4.51
2017-01-25T23:17:51.324Z,-4.51
2017-01-25T23:20:03.867Z,-4.5
2017-01-25T23:22:06.291Z,-4.51
2017-01-25T23:24:18.594Z,-4.51
2017-01-25T23:26:30.828Z,-4.5
2017-01-25T23:28:43.239Z,-4.5
2017-01-25T23:30:50.569Z,-4.5
2017-01-25T23:33:03.076Z,-4.5
2017-01-25T23:35:15.368Z,-4.5
2017-01-25T23:37:27.675Z,-4.5
2017-01-25T23:39:40.359Z,-4.49
2017-01-25T23:41:52.979Z,-4.5
2017-01-25T23:44:05.341Z,-4.49
2017-01-25T23:46:17.652Z,-4.5
2017-01-25T23:48:30.352Z,-4.5
2017-01-25T23:50:38.133Z,-4.49
2017-01-25T23:52:50.507Z,-4.49
2017-01-25T23:54:57.992Z,-4.49
2017-01-25T23:57:05.349Z,-4.49
2017-01-25T23:59:17.640Z,-4.5
